sensor_id;sensor_type;location;lat;lon;timestamp;P1;durP1;ratioP1;P2;durP2;ratioP2
56181;SDS011;51963;46.052;14.544;2023-12-04T00:01:24;49.20;;;18.58;;
56181;SDS011;51963;46.052;14.544;2023-12-04T00:03:51;50.17;;;19.35;;
56181;SDS011;51963;46.052;14.544;2023-12-04T00:06:18;44.15;;;17.48;;
56181;SDS011;51963;46.052;14.544;2023-12-04T00:08:43;46.38;;;17.50;;
56181;SDS011;51963;46.052;14.544;2023-12-04T00:11:09;47.97;;;19.08;;
56181;SDS011;51963;46.052;14.544;2023-12-04T00:13:35;49.80;;;19.17;;
56181;SDS011;51963;46.052;14.544;2023-12-04T00:16:01;51.28;;;17.65;;
56181;SDS011;51963;46.052;14.544;2023-12-04T00:18:27;48.25;;;17.13;;
56181;SDS011;51963;46.052;14.544;2023-12-04T00:20:52;52.40;;;19.38;;
56181;SDS011;51963;46.052;14.544;2023-12-04T00:23:18;57.45;;;19.58;;
56181;SDS011;51963;46.052;14.544;2023-12-04T00:25:44;53.38;;;19.60;;
56181;SDS011;51963;46.052;14.544;2023-12-04T00:28:09;46.72;;;17.20;;
56181;SDS011;51963;46.052;14.544;2023-12-04T00:30:35;41.80;;;15.70;;
56181;SDS011;51963;46.052;14.544;2023-12-04T00:33:04;53.55;;;18.00;;
56181;SDS011;51963;46.052;14.544;2023-12-04T00:35:29;46.33;;;16.83;;
56181;SDS011;51963;46.052;14.544;2023-12-04T00:37:55;51.40;;;16.90;;
56181;SDS011;51963;46.052;14.544;2023-12-04T00:40:21;50.80;;;17.67;;
56181;SDS011;51963;46.052;14.544;2023-12-04T00:42:46;50.95;;;18.00;;
56181;SDS011;51963;46.052;14.544;2023-12-04T00:45:12;50.70;;;19.35;;
56181;SDS011;51963;46.052;14.544;2023-12-04T00:47:37;54.33;;;20.17;;
56181;SDS011;51963;46.052;14.544;2023-12-04T00:50:03;59.28;;;20.02;;
56181;SDS011;51963;46.052;14.544;2023-12-04T00:52:29;56.17;;;20.67;;
56181;SDS011;51963;46.052;14.544;2023-12-04T00:54:55;58.78;;;21.00;;
56181;SDS011;51963;46.052;14.544;2023-12-04T00:57:21;54.40;;;19.75;;
56181;SDS011;51963;46.052;14.544;2023-12-04T00:59:46;59.75;;;21.35;;
56181;SDS011;51963;46.052;14.544;2023-12-04T01:02:12;49.58;;;19.17;;
56181;SDS011;51963;46.052;14.544;2023-12-04T01:04:41;64.75;;;21.10;;
56181;SDS011;51963;46.052;14.544;2023-12-04T01:07:07;54.30;;;19.45;;
56181;SDS011;51963;46.052;14.544;2023-12-04T01:09:36;58.10;;;19.90;;
56181;SDS011;51963;46.052;14.544;2023-12-04T01:12:02;59.97;;;20.55;;
56181;SDS011;51963;46.052;14.544;2023-12-04T01:14:28;62.22;;;20.85;;
56181;SDS011;51963;46.052;14.544;2023-12-04T01:16:53;55.75;;;21.33;;
56181;SDS011;51963;46.052;14.544;2023-12-04T01:19:19;63.70;;;21.75;;
56181;SDS011;51963;46.052;14.544;2023-12-04T01:21:45;54.72;;;19.90;;
56181;SDS011;51963;46.052;14.544;2023-12-04T01:24:10;59.25;;;20.90;;
56181;SDS011;51963;46.052;14.544;2023-12-04T01:26:36;57.33;;;20.58;;
56181;SDS011;51963;46.052;14.544;2023-12-04T01:29:02;55.08;;;19.50;;
56181;SDS011;51963;46.052;14.544;2023-12-04T01:31:28;54.47;;;19.52;;
56181;SDS011;51963;46.052;14.544;2023-12-04T01:33:54;60.45;;;20.30;;
56181;SDS011;51963;46.052;14.544;2023-12-04T01:36:19;55.22;;;19.70;;
56181;SDS011;51963;46.052;14.544;2023-12-04T01:38:45;66.65;;;22.15;;
56181;SDS011;51963;46.052;14.544;2023-12-04T01:41:11;61.50;;;20.73;;
56181;SDS011;51963;46.052;14.544;2023-12-04T01:43:36;57.75;;;20.98;;
56181;SDS011;51963;46.052;14.544;2023-12-04T01:46:02;62.63;;;21.08;;
56181;SDS011;51963;46.052;14.544;2023-12-04T01:48:28;56.65;;;19.65;;
56181;SDS011;51963;46.052;14.544;2023-12-04T01:50:55;55.65;;;18.55;;
56181;SDS011;51963;46.052;14.544;2023-12-04T01:53:23;58.47;;;21.08;;
56181;SDS011;51963;46.052;14.544;2023-12-04T01:55:49;57.35;;;18.80;;
56181;SDS011;51963;46.052;14.544;2023-12-04T01:58:15;53.22;;;20.33;;
56181;SDS011;51963;46.052;14.544;2023-12-04T02:00:41;51.13;;;18.80;;
56181;SDS011;51963;46.052;14.544;2023-12-04T02:03:07;57.92;;;19.50;;
56181;SDS011;51963;46.052;14.544;2023-12-04T02:05:33;63.53;;;20.30;;
56181;SDS011;51963;46.052;14.544;2023-12-04T02:08:00;57.22;;;19.42;;
56181;SDS011;51963;46.052;14.544;2023-12-04T02:10:26;52.47;;;18.95;;
56181;SDS011;51963;46.052;14.544;2023-12-04T02:12:52;58.90;;;18.83;;
56181;SDS011;51963;46.052;14.544;2023-12-04T02:15:18;48.97;;;18.90;;
56181;SDS011;51963;46.052;14.544;2023-12-04T02:17:43;49.38;;;19.48;;
56181;SDS011;51963;46.052;14.544;2023-12-04T02:20:12;49.78;;;18.50;;
56181;SDS011;51963;46.052;14.544;2023-12-04T02:22:38;54.25;;;18.73;;
56181;SDS011;51963;46.052;14.544;2023-12-04T02:25:04;53.80;;;18.75;;
56181;SDS011;51963;46.052;14.544;2023-12-04T02:27:37;59.28;;;19.90;;
56181;SDS011;51963;46.052;14.544;2023-12-04T02:30:06;55.90;;;19.60;;
56181;SDS011;51963;46.052;14.544;2023-12-04T02:32:36;52.92;;;18.10;;
56181;SDS011;51963;46.052;14.544;2023-12-04T02:35:07;54.92;;;19.33;;
56181;SDS011;51963;46.052;14.544;2023-12-04T02:37:34;51.55;;;18.45;;
56181;SDS011;51963;46.052;14.544;2023-12-04T02:40:03;53.20;;;18.02;;
56181;SDS011;51963;46.052;14.544;2023-12-04T02:42:32;56.30;;;18.75;;
56181;SDS011;51963;46.052;14.544;2023-12-04T02:44:57;55.75;;;18.77;;
56181;SDS011;51963;46.052;14.544;2023-12-04T02:47:23;62.13;;;19.45;;
56181;SDS011;51963;46.052;14.544;2023-12-04T02:49:49;53.95;;;18.33;;
56181;SDS011;51963;46.052;14.544;2023-12-04T02:52:15;52.17;;;18.35;;
56181;SDS011;51963;46.052;14.544;2023-12-04T02:54:40;58.17;;;18.95;;
56181;SDS011;51963;46.052;14.544;2023-12-04T02:57:06;58.67;;;19.33;;
56181;SDS011;51963;46.052;14.544;2023-12-04T02:59:32;60.83;;;20.92;;
56181;SDS011;51963;46.052;14.544;2023-12-04T03:01:57;64.80;;;20.15;;
56181;SDS011;51963;46.052;14.544;2023-12-04T03:04:23;59.78;;;20.58;;
56181;SDS011;51963;46.052;14.544;2023-12-04T03:06:49;60.63;;;19.73;;
56181;SDS011;51963;46.052;14.544;2023-12-04T03:09:15;56.47;;;20.05;;
56181;SDS011;51963;46.052;14.544;2023-12-04T03:11:40;57.58;;;19.60;;
56181;SDS011;51963;46.052;14.544;2023-12-04T03:14:07;54.60;;;18.58;;
56181;SDS011;51963;46.052;14.544;2023-12-04T03:16:33;56.20;;;19.75;;
56181;SDS011;51963;46.052;14.544;2023-12-04T03:18:59;51.92;;;18.45;;
56181;SDS011;51963;46.052;14.544;2023-12-04T03:21:25;53.30;;;18.52;;
56181;SDS011;51963;46.052;14.544;2023-12-04T03:23:50;57.15;;;19.88;;
56181;SDS011;51963;46.052;14.544;2023-12-04T03:26:16;59.28;;;19.63;;
56181;SDS011;51963;46.052;14.544;2023-12-04T03:28:42;57.13;;;19.20;;
56181;SDS011;51963;46.052;14.544;2023-12-04T03:31:08;52.47;;;19.25;;
56181;SDS011;51963;46.052;14.544;2023-12-04T03:33:33;57.97;;;20.05;;
56181;SDS011;51963;46.052;14.544;2023-12-04T03:35:59;62.47;;;19.25;;
56181;SDS011;51963;46.052;14.544;2023-12-04T03:38:25;56.45;;;19.55;;
56181;SDS011;51963;46.052;14.544;2023-12-04T03:40:51;61.75;;;18.73;;
56181;SDS011;51963;46.052;14.544;2023-12-04T03:43:17;59.90;;;19.25;;
56181;SDS011;51963;46.052;14.544;2023-12-04T03:45:42;51.08;;;18.63;;
56181;SDS011;51963;46.052;14.544;2023-12-04T03:48:08;60.75;;;20.02;;
56181;SDS011;51963;46.052;14.544;2023-12-04T03:50:34;64.03;;;20.23;;
56181;SDS011;51963;46.052;14.544;2023-12-04T03:53:00;53.72;;;18.33;;
56181;SDS011;51963;46.052;14.544;2023-12-04T03:55:26;50.92;;;17.70;;
56181;SDS011;51963;46.052;14.544;2023-12-04T03:57:52;56.50;;;20.42;;
56181;SDS011;51963;46.052;14.544;2023-12-04T04:00:18;50.42;;;18.52;;
56181;SDS011;51963;46.052;14.544;2023-12-04T04:02:44;57.40;;;19.58;;
56181;SDS011;51963;46.052;14.544;2023-12-04T04:05:10;60.83;;;20.65;;
56181;SDS011;51963;46.052;14.544;2023-12-04T04:07:36;64.22;;;22.00;;
56181;SDS011;51963;46.052;14.544;2023-12-04T04:10:01;62.22;;;20.38;;
56181;SDS011;51963;46.052;14.544;2023-12-04T04:12:29;54.72;;;18.92;;
56181;SDS011;51963;46.052;14.544;2023-12-04T04:14:56;59.65;;;18.70;;
56181;SDS011;51963;46.052;14.544;2023-12-04T04:17:22;57.25;;;19.45;;
56181;SDS011;51963;46.052;14.544;2023-12-04T04:22:16;53.13;;;17.45;;
56181;SDS011;51963;46.052;14.544;2023-12-04T04:24:41;55.65;;;19.00;;
56181;SDS011;51963;46.052;14.544;2023-12-04T04:27:07;61.65;;;19.13;;
56181;SDS011;51963;46.052;14.544;2023-12-04T04:29:33;60.42;;;20.13;;
56181;SDS011;51963;46.052;14.544;2023-12-04T04:31:58;62.10;;;20.10;;
56181;SDS011;51963;46.052;14.544;2023-12-04T04:34:24;62.00;;;20.80;;
56181;SDS011;51963;46.052;14.544;2023-12-04T04:36:50;59.72;;;19.80;;
56181;SDS011;51963;46.052;14.544;2023-12-04T04:39:15;57.63;;;19.50;;
56181;SDS011;51963;46.052;14.544;2023-12-04T04:41:41;53.75;;;18.17;;
56181;SDS011;51963;46.052;14.544;2023-12-04T04:44:07;57.05;;;18.40;;
56181;SDS011;51963;46.052;14.544;2023-12-04T04:46:32;55.17;;;19.40;;
56181;SDS011;51963;46.052;14.544;2023-12-04T04:48:58;59.13;;;19.58;;
56181;SDS011;51963;46.052;14.544;2023-12-04T04:51:23;57.70;;;18.80;;
56181;SDS011;51963;46.052;14.544;2023-12-04T04:53:49;67.45;;;20.42;;
56181;SDS011;51963;46.052;14.544;2023-12-04T04:56:15;61.45;;;19.98;;
56181;SDS011;51963;46.052;14.544;2023-12-04T04:58:41;63.83;;;20.52;;
56181;SDS011;51963;46.052;14.544;2023-12-04T05:01:07;58.25;;;19.23;;
56181;SDS011;51963;46.052;14.544;2023-12-04T05:03:33;64.90;;;20.88;;
56181;SDS011;51963;46.052;14.544;2023-12-04T05:05:59;52.80;;;18.23;;
56181;SDS011;51963;46.052;14.544;2023-12-04T05:08:25;49.38;;;16.95;;
56181;SDS011;51963;46.052;14.544;2023-12-04T05:10:51;43.63;;;15.82;;
56181;SDS011;51963;46.052;14.544;2023-12-04T05:13:17;45.40;;;16.45;;
56181;SDS011;51963;46.052;14.544;2023-12-04T05:15:43;46.83;;;15.52;;
56181;SDS011;51963;46.052;14.544;2023-12-04T05:18:09;52.45;;;15.52;;
56181;SDS011;51963;46.052;14.544;2023-12-04T05:20:35;43.25;;;15.27;;
56181;SDS011;51963;46.052;14.544;2023-12-04T05:23:00;44.42;;;15.40;;
56181;SDS011;51963;46.052;14.544;2023-12-04T05:25:26;47.35;;;16.45;;
56181;SDS011;51963;46.052;14.544;2023-12-04T05:27:52;48.80;;;16.38;;
56181;SDS011;51963;46.052;14.544;2023-12-04T05:30:17;51.22;;;15.75;;
56181;SDS011;51963;46.052;14.544;2023-12-04T05:32:43;51.78;;;15.52;;
56181;SDS011;51963;46.052;14.544;2023-12-04T05:35:09;45.95;;;14.75;;
56181;SDS011;51963;46.052;14.544;2023-12-04T05:37:34;50.17;;;16.50;;
56181;SDS011;51963;46.052;14.544;2023-12-04T05:40:00;50.90;;;16.85;;
56181;SDS011;51963;46.052;14.544;2023-12-04T05:42:26;48.35;;;15.93;;
56181;SDS011;51963;46.052;14.544;2023-12-04T05:44:52;50.05;;;16.42;;
56181;SDS011;51963;46.052;14.544;2023-12-04T05:49:46;48.97;;;15.55;;
56181;SDS011;51963;46.052;14.544;2023-12-04T05:52:12;48.28;;;15.82;;
56181;SDS011;51963;46.052;14.544;2023-12-04T05:54:38;53.88;;;17.98;;
56181;SDS011;51963;46.052;14.544;2023-12-04T05:57:04;56.20;;;17.67;;
56181;SDS011;51963;46.052;14.544;2023-12-04T05:59:30;51.42;;;16.23;;
56181;SDS011;51963;46.052;14.544;2023-12-04T06:01:56;46.83;;;16.65;;
56181;SDS011;51963;46.052;14.544;2023-12-04T06:04:21;56.22;;;16.60;;
56181;SDS011;51963;46.052;14.544;2023-12-04T06:06:47;57.90;;;17.20;;
56181;SDS011;51963;46.052;14.544;2023-12-04T06:09:14;53.55;;;17.92;;
56181;SDS011;51963;46.052;14.544;2023-12-04T06:11:42;59.83;;;18.92;;
56181;SDS011;51963;46.052;14.544;2023-12-04T06:14:08;54.63;;;17.33;;
56181;SDS011;51963;46.052;14.544;2023-12-04T06:16:33;57.58;;;17.60;;
56181;SDS011;51963;46.052;14.544;2023-12-04T06:19:02;56.80;;;17.23;;
56181;SDS011;51963;46.052;14.544;2023-12-04T06:21:29;61.45;;;18.70;;
56181;SDS011;51963;46.052;14.544;2023-12-04T06:23:58;60.20;;;18.98;;
56181;SDS011;51963;46.052;14.544;2023-12-04T06:26:24;58.40;;;19.27;;
56181;SDS011;51963;46.052;14.544;2023-12-04T06:28:50;61.28;;;17.63;;
56181;SDS011;51963;46.052;14.544;2023-12-04T06:31:16;59.60;;;18.90;;
56181;SDS011;51963;46.052;14.544;2023-12-04T06:33:42;62.90;;;17.90;;
56181;SDS011;51963;46.052;14.544;2023-12-04T06:36:08;59.38;;;17.55;;
56181;SDS011;51963;46.052;14.544;2023-12-04T06:38:35;64.00;;;19.13;;
56181;SDS011;51963;46.052;14.544;2023-12-04T06:41:05;51.35;;;16.60;;
56181;SDS011;51963;46.052;14.544;2023-12-04T06:43:31;58.70;;;17.33;;
56181;SDS011;51963;46.052;14.544;2023-12-04T06:45:58;57.95;;;17.75;;
56181;SDS011;51963;46.052;14.544;2023-12-04T06:48:24;60.67;;;18.15;;
56181;SDS011;51963;46.052;14.544;2023-12-04T06:50:50;56.17;;;18.35;;
56181;SDS011;51963;46.052;14.544;2023-12-04T06:53:16;57.88;;;17.50;;
56181;SDS011;51963;46.052;14.544;2023-12-04T06:55:42;54.92;;;16.45;;
56181;SDS011;51963;46.052;14.544;2023-12-04T06:58:07;55.10;;;17.45;;
56181;SDS011;51963;46.052;14.544;2023-12-04T07:00:33;48.25;;;16.67;;
56181;SDS011;51963;46.052;14.544;2023-12-04T07:02:59;60.20;;;17.08;;
56181;SDS011;51963;46.052;14.544;2023-12-04T07:05:24;55.20;;;18.40;;
56181;SDS011;51963;46.052;14.544;2023-12-04T07:07:50;56.85;;;17.17;;
56181;SDS011;51963;46.052;14.544;2023-12-04T07:10:16;54.83;;;16.77;;
56181;SDS011;51963;46.052;14.544;2023-12-04T07:12:41;60.42;;;18.40;;
56181;SDS011;51963;46.052;14.544;2023-12-04T07:15:08;53.85;;;17.00;;
56181;SDS011;51963;46.052;14.544;2023-12-04T07:17:37;55.42;;;18.83;;
56181;SDS011;51963;46.052;14.544;2023-12-04T07:20:03;53.78;;;17.30;;
56181;SDS011;51963;46.052;14.544;2023-12-04T07:22:33;58.92;;;17.25;;
56181;SDS011;51963;46.052;14.544;2023-12-04T07:24:58;49.85;;;16.80;;
56181;SDS011;51963;46.052;14.544;2023-12-04T07:27:24;60.47;;;16.58;;
56181;SDS011;51963;46.052;14.544;2023-12-04T07:29:50;51.92;;;16.90;;
56181;SDS011;51963;46.052;14.544;2023-12-04T07:32:16;60.70;;;18.30;;
56181;SDS011;51963;46.052;14.544;2023-12-04T07:34:43;54.47;;;16.55;;
56181;SDS011;51963;46.052;14.544;2023-12-04T07:37:10;51.25;;;16.25;;
56181;SDS011;51963;46.052;14.544;2023-12-04T07:39:35;51.33;;;16.10;;
56181;SDS011;51963;46.052;14.544;2023-12-04T07:42:01;52.17;;;16.05;;
56181;SDS011;51963;46.052;14.544;2023-12-04T07:44:27;48.85;;;16.63;;
56181;SDS011;51963;46.052;14.544;2023-12-04T07:46:52;58.05;;;16.67;;
56181;SDS011;51963;46.052;14.544;2023-12-04T07:49:18;58.42;;;15.98;;
56181;SDS011;51963;46.052;14.544;2023-12-04T07:51:44;55.30;;;16.60;;
56181;SDS011;51963;46.052;14.544;2023-12-04T07:54:10;54.45;;;15.60;;
56181;SDS011;51963;46.052;14.544;2023-12-04T07:56:35;62.47;;;18.02;;
56181;SDS011;51963;46.052;14.544;2023-12-04T07:59:01;55.25;;;16.08;;
56181;SDS011;51963;46.052;14.544;2023-12-04T08:01:27;59.05;;;17.63;;
56181;SDS011;51963;46.052;14.544;2023-12-04T08:03:52;63.00;;;17.83;;
56181;SDS011;51963;46.052;14.544;2023-12-04T08:06:18;65.68;;;18.85;;
56181;SDS011;51963;46.052;14.544;2023-12-04T08:08:44;62.08;;;19.05;;
56181;SDS011;51963;46.052;14.544;2023-12-04T08:11:10;58.30;;;18.42;;
56181;SDS011;51963;46.052;14.544;2023-12-04T08:13:39;60.00;;;18.05;;
56181;SDS011;51963;46.052;14.544;2023-12-04T08:16:12;64.45;;;18.55;;
56181;SDS011;51963;46.052;14.544;2023-12-04T08:18:39;60.88;;;18.90;;
56181;SDS011;51963;46.052;14.544;2023-12-04T08:21:05;54.67;;;18.50;;
56181;SDS011;51963;46.052;14.544;2023-12-04T08:23:31;55.85;;;18.73;;
56181;SDS011;51963;46.052;14.544;2023-12-04T08:25:56;60.10;;;17.38;;
56181;SDS011;51963;46.052;14.544;2023-12-04T08:28:22;56.00;;;17.40;;
56181;SDS011;51963;46.052;14.544;2023-12-04T08:30:48;44.65;;;15.32;;
56181;SDS011;51963;46.052;14.544;2023-12-04T08:33:14;50.28;;;16.20;;
56181;SDS011;51963;46.052;14.544;2023-12-04T08:35:40;50.15;;;15.00;;
56181;SDS011;51963;46.052;14.544;2023-12-04T08:38:06;50.95;;;18.23;;
56181;SDS011;51963;46.052;14.544;2023-12-04T08:40:31;51.85;;;18.90;;
56181;SDS011;51963;46.052;14.544;2023-12-04T08:42:57;60.58;;;18.65;;
56181;SDS011;51963;46.052;14.544;2023-12-04T08:45:23;53.92;;;18.15;;
56181;SDS011;51963;46.052;14.544;2023-12-04T08:47:49;60.40;;;20.02;;
56181;SDS011;51963;46.052;14.544;2023-12-04T08:50:15;47.72;;;16.92;;
56181;SDS011;51963;46.052;14.544;2023-12-04T08:52:41;52.80;;;17.13;;
56181;SDS011;51963;46.052;14.544;2023-12-04T08:55:09;48.80;;;16.83;;
56181;SDS011;51963;46.052;14.544;2023-12-04T08:57:35;48.65;;;16.25;;
56181;SDS011;51963;46.052;14.544;2023-12-04T09:00:01;48.28;;;16.58;;
56181;SDS011;51963;46.052;14.544;2023-12-04T09:02:28;51.40;;;16.10;;
56181;SDS011;51963;46.052;14.544;2023-12-04T09:04:54;44.78;;;16.55;;
56181;SDS011;51963;46.052;14.544;2023-12-04T09:07:20;48.97;;;15.50;;
56181;SDS011;51963;46.052;14.544;2023-12-04T09:09:45;45.40;;;15.50;;
56181;SDS011;51963;46.052;14.544;2023-12-04T09:12:11;47.00;;;15.32;;
56181;SDS011;51963;46.052;14.544;2023-12-04T09:14:37;38.97;;;14.50;;
56181;SDS011;51963;46.052;14.544;2023-12-04T09:17:03;43.90;;;15.82;;
56181;SDS011;51963;46.052;14.544;2023-12-04T09:19:28;43.25;;;15.23;;
56181;SDS011;51963;46.052;14.544;2023-12-04T09:21:54;54.72;;;16.83;;
56181;SDS011;51963;46.052;14.544;2023-12-04T09:24:20;50.45;;;16.88;;
56181;SDS011;51963;46.052;14.544;2023-12-04T09:26:46;51.55;;;17.73;;
56181;SDS011;51963;46.052;14.544;2023-12-04T09:29:12;51.38;;;16.17;;
56181;SDS011;51963;46.052;14.544;2023-12-04T09:31:37;50.00;;;17.00;;
56181;SDS011;51963;46.052;14.544;2023-12-04T09:34:03;47.67;;;16.35;;
56181;SDS011;51963;46.052;14.544;2023-12-04T09:36:29;48.05;;;16.30;;
56181;SDS011;51963;46.052;14.544;2023-12-04T09:38:55;49.88;;;15.38;;
56181;SDS011;51963;46.052;14.544;2023-12-04T09:41:20;45.88;;;15.23;;
56181;SDS011;51963;46.052;14.544;2023-12-04T09:43:47;43.63;;;15.88;;
56181;SDS011;51963;46.052;14.544;2023-12-04T09:46:13;45.83;;;15.25;;
56181;SDS011;51963;46.052;14.544;2023-12-04T09:48:41;39.78;;;14.52;;
56181;SDS011;51963;46.052;14.544;2023-12-04T09:51:08;44.28;;;14.50;;
56181;SDS011;51963;46.052;14.544;2023-12-04T09:53:35;50.35;;;15.90;;
56181;SDS011;51963;46.052;14.544;2023-12-04T09:56:02;43.08;;;15.02;;
56181;SDS011;51963;46.052;14.544;2023-12-04T09:58:29;42.47;;;15.07;;
56181;SDS011;51963;46.052;14.544;2023-12-04T10:03:24;41.92;;;15.05;;
56181;SDS011;51963;46.052;14.544;2023-12-04T10:05:50;45.63;;;15.63;;
56181;SDS011;51963;46.052;14.544;2023-12-04T10:08:16;43.05;;;14.70;;
56181;SDS011;51963;46.052;14.544;2023-12-04T10:10:42;46.08;;;15.20;;
56181;SDS011;51963;46.052;14.544;2023-12-04T10:13:08;44.45;;;14.80;;
56181;SDS011;51963;46.052;14.544;2023-12-04T10:15:34;43.88;;;16.20;;
56181;SDS011;51963;46.052;14.544;2023-12-04T10:18:26;42.28;;;14.55;;
56181;SDS011;51963;46.052;14.544;2023-12-04T10:20:54;40.13;;;13.85;;
56181;SDS011;51963;46.052;14.544;2023-12-04T10:23:20;41.92;;;13.77;;
56181;SDS011;51963;46.052;14.544;2023-12-04T10:25:47;36.50;;;13.77;;
56181;SDS011;51963;46.052;14.544;2023-12-04T10:30:41;40.28;;;14.23;;
56181;SDS011;51963;46.052;14.544;2023-12-04T10:33:07;44.88;;;15.05;;
56181;SDS011;51963;46.052;14.544;2023-12-04T10:35:33;43.42;;;13.52;;
56181;SDS011;51963;46.052;14.544;2023-12-04T10:38:04;38.05;;;13.65;;
56181;SDS011;51963;46.052;14.544;2023-12-04T10:40:31;41.90;;;14.80;;
56181;SDS011;51963;46.052;14.544;2023-12-04T10:43:09;41.07;;;14.60;;
56181;SDS011;51963;46.052;14.544;2023-12-04T10:45:39;47.57;;;14.53;;
56181;SDS011;51963;46.052;14.544;2023-12-04T10:48:05;44.28;;;15.40;;
56181;SDS011;51963;46.052;14.544;2023-12-04T10:50:35;45.70;;;15.57;;
56181;SDS011;51963;46.052;14.544;2023-12-04T10:53:05;40.08;;;14.85;;
56181;SDS011;51963;46.052;14.544;2023-12-04T10:55:35;44.42;;;15.05;;
56181;SDS011;51963;46.052;14.544;2023-12-04T10:58:09;41.58;;;15.70;;
56181;SDS011;51963;46.052;14.544;2023-12-04T11:00:36;44.72;;;14.85;;
56181;SDS011;51963;46.052;14.544;2023-12-04T11:03:07;41.05;;;15.68;;
56181;SDS011;51963;46.052;14.544;2023-12-04T11:05:37;37.13;;;13.88;;
56181;SDS011;51963;46.052;14.544;2023-12-04T11:08:05;42.03;;;14.45;;
56181;SDS011;51963;46.052;14.544;2023-12-04T11:10:32;40.20;;;14.67;;
56181;SDS011;51963;46.052;14.544;2023-12-04T11:13:06;47.67;;;15.85;;
56181;SDS011;51963;46.052;14.544;2023-12-04T11:15:39;38.28;;;14.77;;
56181;SDS011;51963;46.052;14.544;2023-12-04T11:18:06;44.30;;;16.13;;
56181;SDS011;51963;46.052;14.544;2023-12-04T11:20:36;41.75;;;15.07;;
56181;SDS011;51963;46.052;14.544;2023-12-04T11:23:13;38.23;;;14.47;;
56181;SDS011;51963;46.052;14.544;2023-12-04T11:25:39;41.00;;;15.20;;
56181;SDS011;51963;46.052;14.544;2023-12-04T11:28:05;39.25;;;14.15;;
56181;SDS011;51963;46.052;14.544;2023-12-04T11:30:31;40.13;;;15.38;;
56181;SDS011;51963;46.052;14.544;2023-12-04T11:32:58;41.67;;;14.18;;
56181;SDS011;51963;46.052;14.544;2023-12-04T11:35:26;35.72;;;14.35;;
56181;SDS011;51963;46.052;14.544;2023-12-04T11:37:52;44.15;;;14.75;;
56181;SDS011;51963;46.052;14.544;2023-12-04T11:40:18;38.30;;;13.70;;
56181;SDS011;51963;46.052;14.544;2023-12-04T11:42:44;36.85;;;14.35;;
56181;SDS011;51963;46.052;14.544;2023-12-04T11:45:10;40.42;;;15.27;;
56181;SDS011;51963;46.052;14.544;2023-12-04T11:47:56;36.78;;;12.63;;
56181;SDS011;51963;46.052;14.544;2023-12-04T11:50:26;36.28;;;13.23;;
56181;SDS011;51963;46.052;14.544;2023-12-04T11:52:52;39.63;;;13.85;;
56181;SDS011;51963;46.052;14.544;2023-12-04T11:55:23;35.67;;;13.55;;
56181;SDS011;51963;46.052;14.544;2023-12-04T11:57:54;37.75;;;13.63;;
56181;SDS011;51963;46.052;14.544;2023-12-04T12:00:26;35.03;;;13.50;;
56181;SDS011;51963;46.052;14.544;2023-12-04T12:05:23;36.15;;;13.57;;
56181;SDS011;51963;46.052;14.544;2023-12-04T12:07:53;36.30;;;13.45;;
56181;SDS011;51963;46.052;14.544;2023-12-04T12:10:19;34.33;;;13.32;;
56181;SDS011;51963;46.052;14.544;2023-12-04T12:12:46;41.08;;;14.43;;
56181;SDS011;51963;46.052;14.544;2023-12-04T12:15:12;39.22;;;13.85;;
56181;SDS011;51963;46.052;14.544;2023-12-04T12:17:39;37.40;;;13.88;;
56181;SDS011;51963;46.052;14.544;2023-12-04T12:20:06;40.30;;;14.02;;
56181;SDS011;51963;46.052;14.544;2023-12-04T12:22:33;37.90;;;13.57;;
56181;SDS011;51963;46.052;14.544;2023-12-04T12:24:59;36.25;;;13.85;;
56181;SDS011;51963;46.052;14.544;2023-12-04T12:27:33;32.97;;;12.80;;
56181;SDS011;51963;46.052;14.544;2023-12-04T12:29:59;35.03;;;13.05;;
56181;SDS011;51963;46.052;14.544;2023-12-04T12:32:26;33.17;;;13.13;;
56181;SDS011;51963;46.052;14.544;2023-12-04T12:34:52;33.53;;;13.05;;
56181;SDS011;51963;46.052;14.544;2023-12-04T12:37:20;36.22;;;13.93;;
56181;SDS011;51963;46.052;14.544;2023-12-04T12:39:46;38.90;;;14.80;;
56181;SDS011;51963;46.052;14.544;2023-12-04T12:42:20;37.30;;;12.70;;
56181;SDS011;51963;46.052;14.544;2023-12-04T12:44:47;36.67;;;13.00;;
56181;SDS011;51963;46.052;14.544;2023-12-04T12:47:14;32.47;;;11.50;;
56181;SDS011;51963;46.052;14.544;2023-12-04T12:49:44;32.45;;;13.02;;
56181;SDS011;51963;46.052;14.544;2023-12-04T12:52:10;35.13;;;12.80;;
56181;SDS011;51963;46.052;14.544;2023-12-04T12:54:40;35.25;;;13.00;;
56181;SDS011;51963;46.052;14.544;2023-12-04T12:57:07;40.28;;;14.43;;
56181;SDS011;51963;46.052;14.544;2023-12-04T12:59:34;41.33;;;14.30;;
56181;SDS011;51963;46.052;14.544;2023-12-04T13:02:00;41.65;;;14.60;;
56181;SDS011;51963;46.052;14.544;2023-12-04T13:04:33;45.63;;;15.00;;
56181;SDS011;51963;46.052;14.544;2023-12-04T13:07:02;38.00;;;13.93;;
56181;SDS011;51963;46.052;14.544;2023-12-04T13:09:29;39.63;;;14.23;;
56181;SDS011;51963;46.052;14.544;2023-12-04T13:11:54;38.65;;;14.20;;
56181;SDS011;51963;46.052;14.544;2023-12-04T13:14:20;42.40;;;14.77;;
56181;SDS011;51963;46.052;14.544;2023-12-04T13:16:46;33.65;;;13.00;;
56181;SDS011;51963;46.052;14.544;2023-12-04T13:19:12;42.33;;;14.13;;
56181;SDS011;51963;46.052;14.544;2023-12-04T13:21:37;36.05;;;13.60;;
56181;SDS011;51963;46.052;14.544;2023-12-04T13:24:03;37.60;;;13.85;;
56181;SDS011;51963;46.052;14.544;2023-12-04T13:26:35;37.13;;;12.88;;
56181;SDS011;51963;46.052;14.544;2023-12-04T13:31:26;31.17;;;11.18;;
56181;SDS011;51963;46.052;14.544;2023-12-04T13:33:53;39.83;;;13.52;;
56181;SDS011;51963;46.052;14.544;2023-12-04T13:36:18;35.60;;;12.52;;
56181;SDS011;51963;46.052;14.544;2023-12-04T13:38:52;33.55;;;12.13;;
56181;SDS011;51963;46.052;14.544;2023-12-04T13:41:18;33.00;;;12.80;;
56181;SDS011;51963;46.052;14.544;2023-12-04T13:44:05;38.60;;;12.43;;
56181;SDS011;51963;46.052;14.544;2023-12-04T13:46:30;34.97;;;13.65;;
56181;SDS011;51963;46.052;14.544;2023-12-04T13:48:57;32.42;;;11.90;;
56181;SDS011;51963;46.052;14.544;2023-12-04T13:51:23;36.00;;;12.88;;
56181;SDS011;51963;46.052;14.544;2023-12-04T13:53:49;33.35;;;12.27;;
56181;SDS011;51963;46.052;14.544;2023-12-04T13:56:20;33.08;;;11.55;;
56181;SDS011;51963;46.052;14.544;2023-12-04T13:58:46;35.03;;;12.95;;
56181;SDS011;51963;46.052;14.544;2023-12-04T14:01:15;34.28;;;12.43;;
56181;SDS011;51963;46.052;14.544;2023-12-04T14:03:47;28.73;;;11.02;;
56181;SDS011;51963;46.052;14.544;2023-12-04T14:06:13;28.65;;;12.05;;
56181;SDS011;51963;46.052;14.544;2023-12-04T14:08:49;31.92;;;11.55;;
56181;SDS011;51963;46.052;14.544;2023-12-04T14:11:15;31.92;;;11.30;;
56181;SDS011;51963;46.052;14.544;2023-12-04T14:13:41;33.90;;;11.50;;
56181;SDS011;51963;46.052;14.544;2023-12-04T14:16:06;27.92;;;10.52;;
56181;SDS011;51963;46.052;14.544;2023-12-04T14:18:32;37.17;;;11.63;;
56181;SDS011;51963;46.052;14.544;2023-12-04T14:20:59;28.98;;;11.07;;